Sunol, California
Current Conditions -  °F | °C
As of 5:53 PM on Friday 31 Oct 2014 (Local Time) from KLVK Reporting Station
Broken Clouds Broken Clouds  
Wind Chill: 57°   Ceiling: 8000
Heat Index: 57°   Visibility: 10mi
Dew Point: 53°   Wind: 6mph
Humidity: 87%   Direction: 230°SW
Pressure: 29.78"   Gusts: NA
Location:  37.6°N, 121.9°W
Report Text: KLVK 010053Z 23005KT 10SM BKN080 14/12 A2978 RMK AO2 SLP083 T01390117
Loading
Personal Weather Stations






























Interactive Weather Map
Tropical Storm Tracking
New forecast layout! Learn more

10-Day Weather Forecast

Advertisements
Track Severe Weather on mobile